createdAt,value
2023-02-22T00:01:51.546Z,8.73
2023-02-22T00:04:21.572Z,9.82
2023-02-22T00:06:50.216Z,8.48
2023-02-22T00:09:21.823Z,10.05
2023-02-22T00:11:49.526Z,10.38
2023-02-22T00:14:20.742Z,9.63
2023-02-22T00:16:48.212Z,10.63
2023-02-22T00:19:15.417Z,10.68
2023-02-22T00:21:45.366Z,9.43
2023-02-22T00:24:23.606Z,10.20
2023-02-22T00:26:58.740Z,9.95
2023-02-22T00:29:26.213Z,9.02
2023-02-22T00:31:57.141Z,9.07
2023-02-22T00:34:24.620Z,9.27
2023-02-22T00:36:51.754Z,9.35
2023-02-22T00:39:19.101Z,9.13
2023-02-22T00:41:46.334Z,9.27
2023-02-22T00:44:13.593Z,9.50
2023-02-22T00:46:40.771Z,8.50
2023-02-22T00:49:08.220Z,8.95
2023-02-22T00:51:35.361Z,8.57
2023-02-22T00:54:02.637Z,8.90
2023-02-22T00:56:29.740Z,8.55
2023-02-22T00:58:58.630Z,8.75
2023-02-22T01:01:26.242Z,8.48
2023-02-22T01:03:54.008Z,8.73
2023-02-22T01:06:23.007Z,8.05
2023-02-22T01:08:50.299Z,8.57
2023-02-22T01:11:18.319Z,9.07
2023-02-22T01:13:45.770Z,8.23
2023-02-22T01:16:13.473Z,8.25
2023-02-22T01:18:40.615Z,7.88
2023-02-22T01:21:08.854Z,8.50
2023-02-22T01:23:36.150Z,8.60
2023-02-22T01:26:06.073Z,7.57
2023-02-22T01:28:34.477Z,7.22
2023-02-22T01:31:07.358Z,7.68
2023-02-22T01:33:49.630Z,8.37
2023-02-22T01:36:17.388Z,7.97
2023-02-22T01:38:45.363Z,7.60
2023-02-22T01:41:13.336Z,7.95
2023-02-22T01:43:40.470Z,7.35
2023-02-22T01:46:23.321Z,8.48
2023-02-22T01:49:01.041Z,7.68
2023-02-22T01:51:37.808Z,7.75
2023-02-22T01:54:08.887Z,7.82
2023-02-22T01:56:40.674Z,8.25
2023-02-22T01:59:10.963Z,7.93
2023-02-22T02:01:40.031Z,7.35
2023-02-22T02:04:13.497Z,7.65
2023-02-22T02:06:42.522Z,7.53
2023-02-22T02:09:20.841Z,8.27
2023-02-22T02:11:49.566Z,8.02
2023-02-22T02:14:17.324Z,7.90
2023-02-22T02:16:48.153Z,7.63
2023-02-22T02:19:29.172Z,7.90
2023-02-22T02:22:25.983Z,7.90
2023-02-22T02:25:19.615Z,7.47
2023-02-22T02:27:55.601Z,7.00
2023-02-22T02:30:22.623Z,6.65
2023-02-22T02:33:01.558Z,7.68
2023-02-22T02:35:39.903Z,8.20
2023-02-22T02:38:45.525Z,7.93
2023-02-22T02:41:38.479Z,7.05
2023-02-22T02:44:14.301Z,6.68
2023-02-22T02:47:25.727Z,6.55
2023-02-22T02:50:03.082Z,6.50
2023-02-22T02:52:33.557Z,6.75
2023-02-22T02:55:02.853Z,7.18
2023-02-22T02:57:29.919Z,6.38
2023-02-22T02:59:57.565Z,7.13
2023-02-22T03:02:55.451Z,6.72
2023-02-22T03:05:48.649Z,6.50
2023-02-22T03:08:40.380Z,7.32
2023-02-22T03:11:17.156Z,7.72
2023-02-22T03:14:16.834Z,6.03
2023-02-22T03:16:53.547Z,6.43
2023-02-22T03:19:45.994Z,6.10
2023-02-22T03:22:32.869Z,6.32
2023-02-22T03:25:08.617Z,6.40
2023-02-22T03:27:43.897Z,7.03
2023-02-22T03:30:24.388Z,6.03
2023-02-22T03:32:57.719Z,6.80
2023-02-22T03:35:33.965Z,6.97
2023-02-22T03:38:04.783Z,7.47
2023-02-22T03:40:35.713Z,6.65
2023-02-22T03:43:07.970Z,7.05
2023-02-22T03:45:37.619Z,6.35
2023-02-22T03:48:19.845Z,6.90
2023-02-22T03:50:48.363Z,6.53
2023-02-22T03:53:15.437Z,6.18
2023-02-22T03:55:42.690Z,6.72
2023-02-22T03:58:12.681Z,6.65
2023-02-22T04:00:44.836Z,6.78
2023-02-22T04:03:12.173Z,6.45
2023-02-22T04:05:39.345Z,6.38
2023-02-22T04:08:06.788Z,6.80
2023-02-22T04:10:34.129Z,6.60
2023-02-22T04:13:02.085Z,6.13
2023-02-22T04:15:29.173Z,6.95
2023-02-22T04:17:56.298Z,6.60
2023-02-22T04:20:25.806Z,6.85
2023-02-22T04:22:53.825Z,6.43
2023-02-22T04:25:23.163Z,6.20
2023-02-22T04:27:50.309Z,5.90
2023-02-22T04:30:21.323Z,6.32
2023-02-22T04:32:48.930Z,7.25
2023-02-22T04:35:16.275Z,6.50
2023-02-22T04:37:43.386Z,6.57
2023-02-22T04:40:11.903Z,7.95
2023-02-22T04:42:39.656Z,6.78
2023-02-22T04:45:09.024Z,7.03
2023-02-22T04:47:37.367Z,6.15
2023-02-22T04:50:06.595Z,6.53
2023-02-22T04:52:34.186Z,6.25
2023-02-22T04:55:01.331Z,6.25
2023-02-22T04:57:28.544Z,6.00
2023-02-22T04:59:55.887Z,6.65
2023-02-22T05:02:23.190Z,7.35
2023-02-22T05:04:50.876Z,6.68
2023-02-22T05:07:18.428Z,6.95
2023-02-22T05:09:45.516Z,6.70
2023-02-22T05:12:12.748Z,6.03
2023-02-22T05:14:39.877Z,7.57
2023-02-22T05:17:06.985Z,6.80
2023-02-22T05:19:34.151Z,7.30
2023-02-22T05:22:01.292Z,6.93
2023-02-22T05:24:28.481Z,5.65
2023-02-22T05:26:55.536Z,6.88
2023-02-22T05:29:23.241Z,6.43
2023-02-22T05:31:50.401Z,6.70
2023-02-22T05:34:17.676Z,6.30
2023-02-22T05:36:44.890Z,5.85
2023-02-22T05:39:12.445Z,6.15
2023-02-22T05:41:39.665Z,7.28
2023-02-22T05:44:06.828Z,6.90
2023-02-22T05:46:34.033Z,6.20
2023-02-22T05:49:01.413Z,6.95
2023-02-22T05:51:28.520Z,6.20
2023-02-22T05:53:55.560Z,6.40
2023-02-22T05:56:28.077Z,6.72
2023-02-22T05:58:55.647Z,6.35
2023-02-22T06:01:23.208Z,6.72
2023-02-22T06:03:51.620Z,6.80
2023-02-22T06:06:22.736Z,6.22
2023-02-22T06:08:49.930Z,6.15
2023-02-22T06:11:17.659Z,6.65
2023-02-22T06:13:53.468Z,6.50
2023-02-22T06:16:21.995Z,6.63
2023-02-22T06:18:49.499Z,6.40
2023-02-22T06:21:17.941Z,6.47
2023-02-22T06:23:45.296Z,7.18
2023-02-22T06:26:12.597Z,6.53
2023-02-22T06:28:39.737Z,6.40
2023-02-22T06:31:06.869Z,5.72
2023-02-22T06:33:33.983Z,6.18
2023-02-22T06:36:01.118Z,7.13
2023-02-22T06:38:28.213Z,6.45
2023-02-22T06:40:55.858Z,6.30
2023-02-22T06:43:25.317Z,5.47
2023-02-22T06:45:53.104Z,6.22
2023-02-22T06:48:20.407Z,6.60
2023-02-22T06:50:47.896Z,5.88
2023-02-22T06:53:15.008Z,6.35
2023-02-22T06:55:42.039Z,7.15
2023-02-22T06:58:09.249Z,6.97
2023-02-22T07:00:36.449Z,6.25
2023-02-22T07:03:04.607Z,6.97
2023-02-22T07:05:31.878Z,6.30
2023-02-22T07:08:06.208Z,6.03
2023-02-22T07:10:34.785Z,6.40
2023-02-22T07:13:02.530Z,6.35
2023-02-22T07:15:33.368Z,6.75
2023-02-22T07:18:02.082Z,6.60
2023-02-22T07:20:32.612Z,6.40
2023-02-22T07:23:00.646Z,6.90
2023-02-22T07:25:28.176Z,7.07
2023-02-22T07:27:55.432Z,6.60
2023-02-22T07:30:25.796Z,7.25
2023-02-22T07:32:55.493Z,7.75
2023-02-22T07:35:24.179Z,7.18
2023-02-22T07:37:52.428Z,7.85
2023-02-22T07:40:22.391Z,8.18
2023-02-22T07:43:00.602Z,7.68
2023-02-22T07:45:36.705Z,7.82
2023-02-22T07:48:05.487Z,7.93
2023-02-22T07:50:34.285Z,7.95
2023-02-22T07:53:05.112Z,8.20
2023-02-22T07:55:34.172Z,7.55
2023-02-22T07:58:04.685Z,8.77
2023-02-22T08:00:34.728Z,8.07
2023-02-22T08:03:05.276Z,7.85
2023-02-22T08:05:34.376Z,8.00
2023-02-22T08:08:02.054Z,7.38
2023-02-22T08:10:29.726Z,7.95
2023-02-22T08:12:57.396Z,7.43
2023-02-22T08:15:33.011Z,8.38
2023-02-22T08:18:01.549Z,7.82
2023-02-22T08:20:30.029Z,7.68
2023-02-22T08:22:58.065Z,8.73
2023-02-22T08:25:28.364Z,7.03
2023-02-22T08:28:04.840Z,8.27
2023-02-22T08:30:33.240Z,8.05
2023-02-22T08:33:00.765Z,7.75
2023-02-22T08:35:27.875Z,7.53
2023-02-22T08:37:59.066Z,7.65
2023-02-22T08:40:28.750Z,7.50
2023-02-22T08:42:55.803Z,7.85
2023-02-22T08:45:22.939Z,8.25
2023-02-22T08:47:50.166Z,7.85
2023-02-22T08:50:27.237Z,7.20
2023-02-22T08:52:58.937Z,7.78
2023-02-22T08:55:28.661Z,8.15
2023-02-22T08:57:55.745Z,8.20
2023-02-22T09:00:25.596Z,8.57
2023-02-22T09:02:53.325Z,8.05
2023-02-22T09:05:20.952Z,8.68
2023-02-22T09:07:48.422Z,8.13
2023-02-22T09:10:17.759Z,8.18
2023-02-22T09:12:44.839Z,7.13
2023-02-22T09:15:12.812Z,7.43
2023-02-22T09:17:40.071Z,8.35
2023-02-22T09:20:08.707Z,7.57
2023-02-22T09:22:35.879Z,8.00
2023-02-22T09:25:15.880Z,8.27
2023-02-22T09:27:44.376Z,8.00
2023-02-22T09:30:28.118Z,7.38
2023-02-22T09:32:58.983Z,7.55
2023-02-22T09:35:27.701Z,7.60
2023-02-22T09:38:00.832Z,8.02
2023-02-22T09:40:30.817Z,8.40
2023-02-22T09:43:07.676Z,8.57
2023-02-22T09:45:40.664Z,7.82
2023-02-22T09:48:21.375Z,8.10
2023-02-22T09:50:51.666Z,8.88
2023-02-22T09:53:42.402Z,8.07
2023-02-22T09:56:13.974Z,7.30
2023-02-22T09:58:46.185Z,8.52
2023-02-22T10:01:28.438Z,9.05
2023-02-22T10:04:13.923Z,8.45
2023-02-22T10:06:53.737Z,7.90
2023-02-22T10:09:23.423Z,7.80
2023-02-22T10:12:03.298Z,8.68
2023-02-22T10:14:52.013Z,8.95
2023-02-22T10:17:22.658Z,9.82
2023-02-22T10:20:08.002Z,8.88
2023-02-22T10:22:53.373Z,8.27
2023-02-22T10:25:27.444Z,8.60
2023-02-22T10:28:31.277Z,8.75
2023-02-22T10:31:05.335Z,8.20
2023-02-22T10:33:54.863Z,9.38
2023-02-22T10:36:24.229Z,9.45
2023-02-22T10:39:12.187Z,9.02
2023-02-22T10:41:46.090Z,9.63
2023-02-22T10:46:42.270Z,7.90
2023-02-22T10:49:12.527Z,8.48
2023-02-22T10:51:40.057Z,7.72
2023-02-22T10:54:24.458Z,8.80
2023-02-22T10:56:54.151Z,9.00
2023-02-22T10:59:39.698Z,8.82
2023-02-22T11:02:25.036Z,8.68
2023-02-22T11:04:54.784Z,7.13
2023-02-22T11:07:24.899Z,8.80
2023-02-22T11:09:57.706Z,8.63
2023-02-22T11:12:33.940Z,8.65
2023-02-22T11:15:19.267Z,8.88
2023-02-22T11:17:49.290Z,9.07
2023-02-22T11:20:29.403Z,8.18
2023-02-22T11:23:00.199Z,9.68
2023-02-22T11:25:42.855Z,8.85
2023-02-22T11:28:21.404Z,9.65
2023-02-22T11:30:52.570Z,9.57
2023-02-22T11:33:26.009Z,9.00
2023-02-22T11:35:58.804Z,8.40
2023-02-22T11:38:28.617Z,9.73
2023-02-22T11:41:25.147Z,9.07
2023-02-22T11:44:46.424Z,8.77
2023-02-22T11:47:14.346Z,8.48
2023-02-22T11:49:45.985Z,8.75
2023-02-22T11:52:30.177Z,8.15
2023-02-22T11:58:27.333Z,7.32
2023-02-22T12:01:17.799Z,9.07
2023-02-22T12:04:24.088Z,8.48
2023-02-22T12:07:15.806Z,9.85
2023-02-22T12:09:55.289Z,9.18
2023-02-22T12:12:40.989Z,8.00
2023-02-22T12:15:33.282Z,8.32
2023-02-22T12:18:09.374Z,8.98
2023-02-22T12:20:55.633Z,8.93
2023-02-22T12:23:33.210Z,8.75
2023-02-22T12:26:20.415Z,8.05
2023-02-22T12:28:59.779Z,8.45
2023-02-22T12:31:34.244Z,9.18
2023-02-22T12:34:17.526Z,8.25
2023-02-22T12:36:49.430Z,8.88
2023-02-22T12:39:53.292Z,9.63
2023-02-22T12:42:44.005Z,8.77
2023-02-22T12:45:30.928Z,8.13
2023-02-22T12:48:07.483Z,8.05
2023-02-22T12:50:36.321Z,7.80
2023-02-22T12:53:15.334Z,8.82
2023-02-22T12:55:46.154Z,9.20
2023-02-22T12:58:31.529Z,8.50
2023-02-22T13:01:13.867Z,8.82
2023-02-22T13:03:44.116Z,8.05
2023-02-22T13:06:40.401Z,8.50
2023-02-22T13:09:24.656Z,8.20
2023-02-22T13:12:16.680Z,9.25
2023-02-22T13:14:59.331Z,8.82
2023-02-22T13:17:38.399Z,8.27
2023-02-22T13:20:34.494Z,7.97
2023-02-22T13:23:23.184Z,8.65
2023-02-22T13:26:08.373Z,7.78
2023-02-22T13:28:58.512Z,8.07
2023-02-22T13:31:41.181Z,8.07
2023-02-22T13:34:22.980Z,8.20
2023-02-22T13:37:04.958Z,8.20
2023-02-22T13:39:34.955Z,8.43
2023-02-22T13:42:18.397Z,8.15
2023-02-22T13:45:04.278Z,7.85
2023-02-22T13:47:40.528Z,8.25
2023-02-22T13:50:22.969Z,7.50
2023-02-22T13:52:52.413Z,7.30
2023-02-22T13:55:32.919Z,7.35
2023-02-22T13:58:04.893Z,7.97
2023-02-22T14:00:57.885Z,7.97
2023-02-22T14:03:41.437Z,8.18
2023-02-22T14:06:11.684Z,7.70
2023-02-22T14:08:41.975Z,7.53
2023-02-22T14:11:15.275Z,7.88
2023-02-22T14:13:56.101Z,7.50
2023-02-22T14:16:27.823Z,7.60
2023-02-22T14:19:13.654Z,8.30
2023-02-22T14:22:04.375Z,7.18
2023-02-22T14:24:43.440Z,6.85
2023-02-22T14:27:12.256Z,7.68
2023-02-22T14:30:00.691Z,7.47
2023-02-22T14:32:35.804Z,7.72
2023-02-22T14:35:25.467Z,7.45
2023-02-22T14:38:00.485Z,7.38
2023-02-22T14:40:29.324Z,7.90
2023-02-22T14:43:06.622Z,7.97
2023-02-22T14:45:36.886Z,7.30
2023-02-22T14:48:11.941Z,7.00
2023-02-22T14:50:44.399Z,8.00
2023-02-22T14:53:26.630Z,7.50
2023-02-22T14:56:07.801Z,7.72
2023-02-22T14:58:46.946Z,7.78
2023-02-22T15:01:28.961Z,7.35
2023-02-22T15:04:07.847Z,7.72
2023-02-22T15:06:35.841Z,7.63
2023-02-22T15:09:12.362Z,8.18
2023-02-22T15:11:39.427Z,7.95
2023-02-22T15:14:26.176Z,6.82
2023-02-22T15:16:59.393Z,8.43
2023-02-22T15:19:30.620Z,8.27
2023-02-22T15:22:00.047Z,8.25
2023-02-22T15:24:34.170Z,7.78
2023-02-22T15:27:15.034Z,7.97
2023-02-22T15:29:47.005Z,6.15
2023-02-22T15:32:36.888Z,7.47
2023-02-22T15:35:29.498Z,7.30
2023-02-22T15:38:02.670Z,7.07
2023-02-22T15:40:33.697Z,7.78
2023-02-22T15:43:03.431Z,8.63
2023-02-22T15:45:32.661Z,7.25
2023-02-22T15:48:00.753Z,7.97
2023-02-22T15:50:32.626Z,8.02
2023-02-22T15:53:27.350Z,8.13
2023-02-22T15:56:00.461Z,8.20
2023-02-22T15:58:30.246Z,7.25
2023-02-22T16:01:09.502Z,8.23
2023-02-22T16:03:49.117Z,7.82
2023-02-22T16:06:40.723Z,7.63
2023-02-22T16:09:13.755Z,7.70
2023-02-22T16:11:47.638Z,7.70
2023-02-22T16:14:30.798Z,8.30
2023-02-22T16:17:31.405Z,7.10
2023-02-22T16:20:19.690Z,8.30
2023-02-22T16:22:51.258Z,7.25
2023-02-22T16:25:18.310Z,7.43
2023-02-22T16:27:50.656Z,7.65
2023-02-22T16:30:25.337Z,7.47
2023-02-22T16:32:55.616Z,9.43
2023-02-22T16:35:29.034Z,7.22
2023-02-22T16:38:08.268Z,8.45
2023-02-22T16:40:44.817Z,7.65
2023-02-22T16:43:25.286Z,8.02
2023-02-22T16:45:53.383Z,7.47
2023-02-22T16:48:30.904Z,8.70
2023-02-22T16:51:02.933Z,7.75
2023-02-22T16:53:33.213Z,7.60
2023-02-22T16:56:03.884Z,7.80
2023-02-22T16:58:37.074Z,8.38
2023-02-22T17:01:04.300Z,7.65
2023-02-22T17:03:31.377Z,7.47
2023-02-22T17:05:58.621Z,7.93
2023-02-22T17:08:25.706Z,7.60
2023-02-22T17:10:56.955Z,7.65
2023-02-22T17:13:27.271Z,7.22
2023-02-22T17:15:57.816Z,7.18
2023-02-22T17:18:29.036Z,7.30
2023-02-22T17:20:56.838Z,7.00
2023-02-22T17:23:24.519Z,6.70
2023-02-22T17:25:57.196Z,7.32
2023-02-22T17:28:25.343Z,7.43
2023-02-22T17:30:54.456Z,7.88
2023-02-22T17:33:28.262Z,7.72
2023-02-22T17:36:02.091Z,7.80
2023-02-22T17:40:59.556Z,6.88
2023-02-22T17:43:30.513Z,7.75
2023-02-22T17:45:58.067Z,7.22
2023-02-22T17:48:26.065Z,7.07
2023-02-22T17:50:54.188Z,7.63
2023-02-22T17:53:25.059Z,6.75
2023-02-22T17:55:52.832Z,6.90
2023-02-22T17:58:20.612Z,6.75
2023-02-22T18:00:50.602Z,7.75
2023-02-22T18:03:26.159Z,7.80
2023-02-22T18:06:00.137Z,7.40
2023-02-22T18:11:02.232Z,7.13
2023-02-22T18:13:29.316Z,6.32
2023-02-22T18:16:05.231Z,7.45
2023-02-22T18:18:33.006Z,6.88
2023-02-22T18:21:00.216Z,7.82
2023-02-22T18:23:29.777Z,5.90
2023-02-22T18:26:10.024Z,6.50
2023-02-22T18:28:38.390Z,6.93
2023-02-22T18:31:10.033Z,6.65
2023-02-22T18:33:37.417Z,6.03
2023-02-22T18:36:04.829Z,5.72
2023-02-22T18:38:31.975Z,7.22
2023-02-22T18:41:04.826Z,6.85
2023-02-22T18:43:34.544Z,6.80
2023-02-22T18:46:18.431Z,6.30
2023-02-22T18:48:47.299Z,6.03
2023-02-22T18:51:17.464Z,7.18
2023-02-22T18:53:47.774Z,6.32
2023-02-22T18:56:22.407Z,6.35
2023-02-22T18:58:54.419Z,6.00
2023-02-22T19:01:22.667Z,6.45
2023-02-22T19:03:50.418Z,6.28
2023-02-22T19:06:19.512Z,6.15
2023-02-22T19:08:47.436Z,7.35
2023-02-22T19:11:24.960Z,6.30
2023-02-22T19:13:54.430Z,7.13
2023-02-22T19:16:23.644Z,6.90
2023-02-22T19:18:52.722Z,6.45
2023-02-22T19:21:20.957Z,6.70
2023-02-22T19:23:49.184Z,6.15
2023-02-22T19:26:24.671Z,5.82
2023-02-22T19:28:53.813Z,5.60
2023-02-22T19:31:31.773Z,5.65
2023-02-22T19:34:11.352Z,6.00
2023-02-22T19:36:40.352Z,6.65
2023-02-22T19:39:08.675Z,6.80
2023-02-22T19:41:35.907Z,6.43
2023-02-22T19:44:02.951Z,6.75
2023-02-22T19:46:30.165Z,5.85
2023-02-22T19:48:58.134Z,6.05
2023-02-22T19:51:28.221Z,6.22
2023-02-22T19:54:04.118Z,5.35
2023-02-22T19:56:32.503Z,5.65
2023-02-22T19:59:03.211Z,6.13
2023-02-22T20:01:33.625Z,6.25
2023-02-22T20:04:12.629Z,6.38
2023-02-22T20:06:44.285Z,6.35
2023-02-22T20:09:14.459Z,5.10
2023-02-22T20:11:41.522Z,6.07
2023-02-22T20:14:08.719Z,5.82
2023-02-22T20:16:36.140Z,6.53
2023-02-22T20:19:04.118Z,5.40
2023-02-22T20:21:33.779Z,5.15
2023-02-22T20:24:07.122Z,6.38
2023-02-22T20:26:36.342Z,5.85
2023-02-22T20:29:04.482Z,6.25
2023-02-22T20:31:32.898Z,5.50
2023-02-22T20:34:14.655Z,6.90
2023-02-22T20:36:57.357Z,6.13
2023-02-22T20:39:25.914Z,6.22
2023-02-22T20:41:55.253Z,5.85
2023-02-22T20:44:22.774Z,5.93
2023-02-22T20:46:49.864Z,6.88
2023-02-22T20:49:19.328Z,6.10
2023-02-22T20:51:48.281Z,6.40
2023-02-22T20:54:16.287Z,6.30
2023-02-22T20:56:45.531Z,6.60
2023-02-22T20:59:14.399Z,6.80
2023-02-22T21:01:42.423Z,7.95
2023-02-22T21:04:10.674Z,7.70
2023-02-22T21:06:39.572Z,7.53
2023-02-22T21:09:12.142Z,6.95
2023-02-22T21:11:40.310Z,8.55
2023-02-22T21:14:07.644Z,7.43
2023-02-22T21:16:37.401Z,7.75
2023-02-22T21:19:07.134Z,6.90
2023-02-22T21:21:35.478Z,7.57
2023-02-22T21:24:02.701Z,8.02
2023-02-22T21:26:33.138Z,7.18
2023-02-22T21:29:03.656Z,6.68
2023-02-22T21:31:31.983Z,6.13
2023-02-22T21:34:00.501Z,7.07
2023-02-22T21:36:28.626Z,6.88
2023-02-22T21:39:01.449Z,6.20
2023-02-22T21:41:30.674Z,5.78
2023-02-22T21:43:59.834Z,6.13
2023-02-22T21:46:29.476Z,5.85
2023-02-22T21:48:59.093Z,6.25
2023-02-22T21:51:31.939Z,6.22
2023-02-22T21:54:01.701Z,6.15
2023-02-22T21:56:30.414Z,6.18
2023-02-22T21:59:03.104Z,7.05
2023-02-22T22:01:36.549Z,5.88
2023-02-22T22:04:05.294Z,6.60
2023-02-22T22:06:34.705Z,6.28
2023-02-22T22:09:04.907Z,6.70
2023-02-22T22:11:32.052Z,5.85
2023-02-22T22:13:59.957Z,5.65
2023-02-22T22:16:30.159Z,5.53
2023-02-22T22:18:58.007Z,5.53
2023-02-22T22:21:25.724Z,5.45
2023-02-22T22:23:57.597Z,5.80
2023-02-22T22:26:26.353Z,4.70
2023-02-22T22:28:59.471Z,5.03
2023-02-22T22:31:27.792Z,5.72
2023-02-22T22:33:56.601Z,5.47
2023-02-22T22:36:26.533Z,4.68
2023-02-22T22:38:57.708Z,5.10
2023-02-22T22:41:25.311Z,4.72
2023-02-22T22:43:54.316Z,4.72
2023-02-22T22:46:21.945Z,4.90
2023-02-22T22:48:49.045Z,4.97
2023-02-22T22:51:20.953Z,5.93
2023-02-22T22:53:49.951Z,4.47
2023-02-22T22:56:26.774Z,4.85
2023-02-22T22:58:58.670Z,5.18
2023-02-22T23:01:32.007Z,5.45
2023-02-22T23:04:02.279Z,4.78
2023-02-22T23:06:33.289Z,4.45
2023-02-22T23:09:10.895Z,4.93
2023-02-22T23:11:44.849Z,5.65
2023-02-22T23:14:14.500Z,4.78
2023-02-22T23:16:43.047Z,5.07
2023-02-22T23:19:10.514Z,5.90
2023-02-22T23:21:39.394Z,4.85
2023-02-22T23:24:07.005Z,5.75
2023-02-22T23:26:36.318Z,4.90
2023-02-22T23:29:03.865Z,4.78
2023-02-22T23:31:32.422Z,4.70
2023-02-22T23:34:00.174Z,6.05
2023-02-22T23:36:27.870Z,5.15
2023-02-22T23:38:55.137Z,4.75
2023-02-22T23:41:25.336Z,5.72
2023-02-22T23:43:52.577Z,5.32
2023-02-22T23:46:19.837Z,5.45
2023-02-22T23:48:52.068Z,5.07
2023-02-22T23:51:25.733Z,5.95
2023-02-22T23:53:57.505Z,4.63
2023-02-22T23:56:28.232Z,4.25
2023-02-22T23:58:57.670Z,4.88
